Time;durP1;ratioP1;P1;durP2;ratioP2;P2;SDS_P1;SDS_P2;PMS_P1;PMS_P2;Temp;Humidity;BMP_temperature;BMP_pressure;BME280_temperature;BME280_humidity;BME280_pressure;Samples;Min_cycle;Max_cycle;Signal;HPM_P1;HPM_P2
2022/01/25 00:26:23;;;;;;;39.50;19.33;;;-1.40;99.90;;;;;;5045042;28;20039;-78
2022/01/25 00:29:02;;;;;;;37.10;18.88;;;-1.80;99.90;;;;;;5056487;28;20028;-78
2022/01/25 00:31:27;;;;;;;37.08;18.58;;;-1.70;99.90;;;;;;5055562;28;20032;-78
2022/01/25 00:33:54;;;;;;;31.52;16.88;;;-1.80;99.90;;;;;;5056948;28;20040;-78
2022/01/25 00:36:25;;;;;;;35.85;18.65;;;-1.90;99.90;;;;;;5039404;28;20030;-78
2022/01/25 00:38:53;;;;;;;38.90;18.85;;;-1.80;99.90;;;;;;5048933;28;20564;-77
2022/01/25 00:41:19;;;;;;;31.98;17.55;;;-1.80;99.90;;;;;;5058124;28;20096;-78
2022/01/25 00:43:45;;;;;;;33.22;17.67;;;-1.70;99.90;;;;;;5057310;28;20734;-78
2022/01/25 00:46:12;;;;;;;32.88;17.90;;;-1.70;99.90;;;;;;5037111;28;20403;-78
2022/01/25 00:48:50;;;;;;;35.80;18.85;;;-1.60;99.90;;;;;;5036967;28;20049;-78
2022/01/25 00:53:59;;;;;;;26.58;16.15;;;-1.60;99.90;;;;;;5037214;28;20037;-78
2022/01/25 00:56:33;;;;;;;30.60;16.33;;;-1.60;99.90;;;;;;5057203;28;20021;-77
2022/01/25 00:59:00;;;;;;;34.22;16.95;;;-1.80;99.90;;;;;;5056145;28;20025;-77
2022/01/25 01:01:27;;;;;;;32.53;17.55;;;-1.90;99.90;;;;;;5058545;28;20028;-77
2022/01/25 01:03:53;;;;;;;27.00;16.13;;;-2.00;99.90;;;;;;5054602;28;20032;-78
2022/01/25 01:06:19;;;;;;;29.35;15.25;;;-2.00;99.90;;;;;;5037963;28;20018;-78
2022/01/25 01:08:45;;;;;;;29.92;17.08;;;-2.10;99.90;;;;;;5036962;28;20033;-78
2022/01/25 01:11:18;;;;;;;25.48;15.32;;;-2.10;99.90;;;;;;5049777;28;20079;-78
2022/01/25 01:30:31;;;;;;;29.75;17.15;;;-2.20;99.90;;;;;;5036129;28;20113;-78
2022/01/25 01:43:37;;;;;;;29.92;17.67;;;-1.90;99.90;;;;;;5038786;28;20096;-77
2022/01/25 01:48:40;;;;;;;72.78;37.65;;;-1.90;99.90;;;;;;5039442;28;20025;-78
2022/01/25 01:51:14;;;;;;;50.25;20.92;;;-1.80;99.90;;;;;;5040230;28;20076;-79
2022/01/25 01:53:41;;;;;;;38.90;19.33;;;-1.80;99.90;;;;;;5040958;28;20029;-79
2022/01/25 01:56:07;;;;;;;35.53;18.02;;;-1.90;99.90;;;;;;5043052;28;20046;-77
2022/01/25 01:58:37;;;;;;;33.28;16.38;;;-2.20;99.90;;;;;;5046617;28;20029;-78
2022/01/25 02:01:08;;;;;;;29.75;15.68;;;-2.10;99.90;;;;;;5060685;28;20033;-78
2022/01/25 02:03:34;;;;;;;22.90;15.35;;;-2.10;99.90;;;;;;5057499;28;20366;-77
2022/01/25 02:06:00;;;;;;;29.67;15.73;;;-2.20;99.90;;;;;;5040979;28;20043;-77
2022/01/25 02:08:26;;;;;;;29.58;16.15;;;-1.00;99.90;;;;;;5036209;28;20029;-77
2022/01/25 02:10:52;;;;;;;31.20;16.13;;;-2.20;99.90;;;;;;5041104;28;20041;-76
2022/01/25 02:13:18;;;;;;;30.42;16.13;;;-2.10;99.90;;;;;;5071673;28;20033;-77
2022/01/25 02:15:46;;;;;;;27.73;15.73;;;-2.20;99.90;;;;;;5071771;28;20592;-77
2022/01/25 02:23:40;;;;;;;27.00;14.63;;;-2.60;99.90;;;;;;5051885;28;20481;-77
2022/01/25 02:26:08;;;;;;;28.92;15.10;;;-2.50;99.90;;;;;;5033957;28;20029;-76
2022/01/25 02:28:37;;;;;;;28.90;14.55;;;-2.60;99.90;;;;;;5048727;28;20057;-77
2022/01/25 02:31:05;;;;;;;26.35;15.13;;;-2.60;99.90;;;;;;5030530;28;20088;-77
2022/01/25 02:33:31;;;;;;;114.07;53.28;;;-2.70;99.90;;;;;;5030380;28;20452;-77
2022/01/25 02:35:58;;;;;;;43.10;21.65;;;-2.70;99.90;;;;;;5031542;28;20033;-76
2022/01/25 02:38:27;;;;;;;29.10;15.30;;;-2.70;99.90;;;;;;5034798;28;20033;-76
2022/01/25 02:40:52;;;;;;;26.70;15.38;;;-2.60;99.90;;;;;;5055556;28;20086;-76
2022/01/25 02:43:20;;;;;;;33.65;14.43;;;-2.70;99.90;;;;;;5055444;28;20097;-76
2022/01/25 02:49:00;;;;;;;40.25;14.93;;;-2.60;99.90;;;;;;5055372;28;20489;-76
2022/01/25 02:51:28;;;;;;;24.20;13.48;;;-2.50;99.90;;;;;;5055238;28;20036;-76
2022/01/25 02:53:55;;;;;;;23.35;13.98;;;-2.50;99.90;;;;;;5053579;28;20400;-76
2022/01/25 02:56:22;;;;;;;19.73;12.75;;;-2.50;99.90;;;;;;5035389;28;20053;-76
2022/01/25 02:58:48;;;;;;;23.90;13.50;;;-1.20;99.90;;;;;;5043437;28;20388;-77
2022/01/25 03:01:14;;;;;;;24.40;13.30;;;-2.70;99.90;;;;;;5055060;28;20029;-77
2022/01/25 03:03:40;;;;;;;25.58;13.02;;;-2.90;99.90;;;;;;5055151;28;20029;-77
2022/01/25 03:06:06;;;;;;;24.83;14.00;;;-2.90;99.90;;;;;;5051580;28;20393;-77
2022/01/25 03:08:32;;;;;;;23.77;13.02;;;-2.90;99.90;;;;;;5034360;28;20032;-76
2022/01/25 03:10:58;;;;;;;28.60;15.05;;;-2.90;99.90;;;;;;5034987;28;20021;-76
2022/01/25 03:13:30;;;;;;;25.98;13.80;;;-2.10;99.90;;;;;;5074308;28;20059;-76
2022/01/25 03:16:01;;;;;;;23.63;13.88;;;-2.80;99.90;;;;;;5071329;28;20032;-76
2022/01/25 03:21:48;;;;;;;26.10;14.27;;;-2.90;99.90;;;;;;5054934;28;20029;-76
2022/01/25 03:23:50;;;;;;;25.38;14.07;;;-2.90;99.90;;;;;;5047010;28;20055;-76
2022/01/25 03:26:16;;;;;;;24.02;14.38;;;-3.00;99.90;;;;;;5052536;28;20029;-76
2022/01/25 03:28:42;;;;;;;24.88;14.68;;;-3.00;99.90;;;;;;5045927;28;20037;-76
2022/01/25 03:31:08;;;;;;;25.08;14.45;;;-2.80;99.90;;;;;;5034686;28;20033;-77
2022/01/25 03:33:34;;;;;;;30.00;14.65;;;-2.90;99.90;;;;;;5033336;28;20032;-76
2022/01/25 03:36:00;;;;;;;23.52;14.15;;;-2.90;99.90;;;;;;5048027;28;20028;-76
2022/01/25 03:38:26;;;;;;;86.22;37.75;;;-2.90;99.90;;;;;;5053818;28;20032;-77
2022/01/25 03:40:51;;;;;;;170.65;70.35;;;-3.00;99.90;;;;;;5053792;28;20029;-77
2022/01/25 03:43:18;;;;;;;74.20;37.97;;;-3.00;99.90;;;;;;5073203;28;20105;-77
2022/01/25 03:45:57;;;;;;;40.10;21.70;;;-3.00;99.90;;;;;;5054031;28;20418;-77
2022/01/25 03:50:50;;;;;;;37.35;20.98;;;-2.90;99.90;;;;;;5033224;28;20113;-77
2022/01/25 03:53:18;;;;;;;34.50;16.77;;;-2.90;99.90;;;;;;5034319;28;20460;-77
2022/01/25 03:55:45;;;;;;;27.30;14.45;;;-2.90;99.90;;;;;;5051314;28;20061;-77
2022/01/25 03:58:11;;;;;;;23.20;14.00;;;-2.90;99.90;;;;;;5053267;28;20082;-76
2022/01/25 04:00:38;;;;;;;22.77;13.82;;;-2.90;99.90;;;;;;5053596;28;20036;-76
2022/01/25 04:03:32;;;;;;;23.08;13.43;;;-3.00;99.90;;;;;;5052619;28;20027;-76
2022/01/25 04:05:52;;;;;;;22.02;13.57;;;-3.10;99.90;;;;;;5051174;28;20051;-75
2022/01/25 04:08:19;;;;;;;23.65;13.52;;;-3.00;99.90;;;;;;5053439;28;20032;-77
2022/01/25 04:10:45;;;;;;;26.02;12.68;;;-3.10;99.90;;;;;;5053447;28;20028;-77
2022/01/25 04:13:11;;;;;;;22.35;12.65;;;-3.20;99.90;;;;;;5053273;28;20502;-77
2022/01/25 04:15:43;;;;;;;23.35;12.48;;;-3.30;99.90;;;;;;5050546;28;20044;-76
2022/01/25 04:21:26;;;;;;;20.98;12.95;;;;;;;;;;5033870;28;20136;-77
2022/01/25 04:26:36;;;;;;;23.88;13.73;;;-2.80;99.90;;;;;;5033925;28;20414;-77
2022/01/25 04:29:02;;;;;;;27.95;14.63;;;-2.90;99.90;;;;;;5042549;28;20045;-76
2022/01/25 04:31:27;;;;;;;28.85;13.68;;;-2.90;99.90;;;;;;5035743;28;20030;-77
2022/01/25 04:34:24;;;;;;;20.65;12.05;;;-2.80;99.90;;;;;;5032268;28;20069;-76
2022/01/25 04:50:28;;;;;;;17.38;10.05;;;-2.30;99.90;;;;;;5033051;28;20508;-76
2022/01/25 04:53:06;;;;;;;18.85;10.65;;;-3.60;99.90;;;;;;5033038;28;20063;-77
2022/01/25 04:55:39;;;;;;;23.05;11.48;;;-3.60;99.90;;;;;;5032850;28;20442;-76
2022/01/25 04:58:13;;;;;;;21.05;11.48;;;-3.60;99.90;;;;;;5051404;28;20029;-77
2022/01/25 05:00:39;;;;;;;19.00;11.65;;;-3.60;99.90;;;;;;5052538;28;20108;-76
2022/01/25 05:03:19;;;;;;;22.55;12.45;;;-3.50;99.90;;;;;;5052708;28;20717;-76
2022/01/25 05:06:05;;;;;;;25.65;13.45;;;-3.40;99.90;;;;;;5038349;28;20030;-77
2022/01/25 05:08:36;;;;;;;20.27;12.15;;;-3.30;99.90;;;;;;5043463;28;20497;-77
2022/01/25 05:11:08;;;;;;;21.83;12.35;;;-3.50;99.90;;;;;;5071996;28;20058;-76
2022/01/25 05:14:45;;;;;;;22.67;12.50;;;-3.60;99.90;;;;;;5052547;28;20048;-76
2022/01/25 05:16:32;;;;;;;24.33;13.25;;;-3.60;99.90;;;;;;5038215;28;20040;-76
2022/01/25 05:19:19;;;;;;;22.38;12.55;;;-3.70;99.90;;;;;;5051333;28;20086;-76
2022/01/25 05:24:33;;;;;;;21.67;12.73;;;-3.60;99.90;;;;;;5033649;28;20071;-76
2022/01/25 05:26:58;;;;;;;22.38;13.20;;;-3.50;99.90;;;;;;5032458;28;20022;-76
2022/01/25 05:29:24;;;;;;;21.67;12.13;;;-3.40;99.90;;;;;;5044349;28;20025;-76
2022/01/25 05:31:50;;;;;;;18.92;11.90;;;-3.40;99.90;;;;;;5055603;28;20043;-77
2022/01/25 05:34:16;;;;;;;22.23;12.45;;;-3.40;99.90;;;;;;5047070;28;20410;-77
2022/01/25 05:36:43;;;;;;;23.13;12.93;;;-3.30;99.90;;;;;;5032224;28;20035;-76
2022/01/25 05:39:17;;;;;;;20.73;12.43;;;-3.30;99.90;;;;;;5030144;28;20458;-76
2022/01/25 05:41:53;;;;;;;28.50;13.95;;;-3.20;99.90;;;;;;5038793;28;20075;-76
2022/01/25 05:45:12;;;;;;;25.67;14.25;;;-3.10;99.90;;;;;;5048534;28;20021;-76
2022/01/25 05:47:08;;;;;;;18.15;11.38;;;-3.00;99.90;;;;;;5043591;28;20409;-76
2022/01/25 05:49:36;;;;;;;20.55;11.68;;;-3.00;99.90;;;;;;5051392;28;20033;-75
2022/01/25 05:52:05;;;;;;;20.65;11.85;;;-3.10;99.90;;;;;;5052107;28;20099;-75
2022/01/25 05:54:31;;;;;;;20.38;12.52;;;-3.20;99.90;;;;;;5046695;28;20053;-77
2022/01/25 05:56:56;;;;;;;21.20;12.65;;;-3.10;99.90;;;;;;5032173;28;20513;-76
2022/01/25 05:59:22;;;;;;;21.70;12.38;;;-3.10;99.90;;;;;;5031406;28;20087;-76
2022/01/25 06:01:48;;;;;;;20.33;13.10;;;-3.20;99.90;;;;;;5032198;28;20049;-76
2022/01/25 06:04:14;;;;;;;23.13;13.73;;;-3.20;99.90;;;;;;5032423;28;20052;-76
2022/01/25 06:06:40;;;;;;;22.98;13.18;;;-3.20;99.90;;;;;;5032332;28;20095;-77
2022/01/25 06:09:06;;;;;;;22.40;13.90;;;-3.10;99.90;;;;;;5042617;28;20025;-76
2022/01/25 06:11:32;;;;;;;27.02;13.35;;;-3.10;99.90;;;;;;5052360;28;20025;-76
2022/01/25 06:13:57;;;;;;;22.40;12.90;;;-3.00;99.90;;;;;;5050808;28;20025;-76
2022/01/25 06:16:24;;;;;;;21.15;12.65;;;-3.00;99.90;;;;;;5032303;28;20041;-76
2022/01/25 06:18:50;;;;;;;22.77;14.23;;;-3.00;99.90;;;;;;5039640;28;20120;-76
2022/01/25 06:21:15;;;;;;;22.65;14.27;;;-3.10;99.90;;;;;;5052015;28;20044;-77
2022/01/25 06:23:41;;;;;;;28.52;14.60;;;-2.90;99.90;;;;;;5051659;28;20129;-76
2022/01/25 06:26:07;;;;;;;25.50;13.52;;;-2.90;99.90;;;;;;5051187;28;20036;-77
2022/01/25 06:28:32;;;;;;;28.80;14.60;;;-2.90;99.90;;;;;;5050249;28;20043;-77
2022/01/25 06:30:58;;;;;;;26.50;14.45;;;-3.00;99.90;;;;;;5050034;28;20033;-76
2022/01/25 06:33:23;;;;;;;26.45;14.77;;;-3.00;99.90;;;;;;5051636;28;20109;-77
2022/01/25 06:35:49;;;;;;;28.45;15.10;;;-2.80;99.90;;;;;;5038201;28;20035;-76
2022/01/25 06:38:15;;;;;;;24.65;13.57;;;-2.90;99.90;;;;;;5032627;28;20029;-78
2022/01/25 06:40:41;;;;;;;24.60;13.88;;;-2.90;99.90;;;;;;5030953;28;20030;-77
2022/01/25 06:43:06;;;;;;;24.77;13.13;;;-2.90;99.90;;;;;;5031889;28;20097;-77
2022/01/25 06:45:33;;;;;;;25.77;14.35;;;-3.00;99.90;;;;;;5046134;28;20550;-78
2022/01/25 06:47:59;;;;;;;38.40;20.55;;;-3.00;99.90;;;;;;5052004;28;20033;-77
2022/01/25 06:50:25;;;;;;;28.88;14.95;;;-2.90;99.90;;;;;;5037644;28;20118;-77
2022/01/25 06:52:51;;;;;;;28.67;15.50;;;-2.80;99.90;;;;;;5032614;28;20030;-77
2022/01/25 06:55:19;;;;;;;25.33;12.85;;;-2.70;99.90;;;;;;5030878;28;20029;-77
2022/01/25 06:57:46;;;;;;;24.75;13.40;;;-2.80;99.90;;;;;;5032808;28;20112;-78
2022/01/25 07:00:15;;;;;;;28.77;14.80;;;-2.70;99.90;;;;;;5052588;28;20025;-76
2022/01/25 07:02:41;;;;;;;24.30;13.55;;;-2.10;99.90;;;;;;5054801;28;20029;-77
2022/01/25 07:05:07;;;;;;;25.08;15.25;;;-2.50;99.90;;;;;;5042987;28;20053;-76
2022/01/25 07:07:34;;;;;;;23.42;14.13;;;-2.50;99.90;;;;;;5037141;28;20490;-76
2022/01/25 07:09:59;;;;;;;26.20;14.15;;;-2.50;99.90;;;;;;5061386;28;20032;-76
2022/01/25 07:12:25;;;;;;;27.83;13.40;;;-2.50;99.90;;;;;;5058794;28;20028;-77
2022/01/25 07:14:51;;;;;;;27.85;14.02;;;-2.40;99.90;;;;;;5047335;28;20124;-78
2022/01/25 07:17:17;;;;;;;24.55;13.90;;;-2.50;99.90;;;;;;5046952;28;20351;-76
2022/01/25 07:19:42;;;;;;;25.50;13.25;;;-2.50;99.90;;;;;;5047321;28;20545;-77
2022/01/25 07:22:08;;;;;;;33.10;15.40;;;-2.40;99.90;;;;;;5047761;28;20405;-77
2022/01/25 07:24:34;;;;;;;28.70;15.77;;;-2.20;99.90;;;;;;5046014;28;20024;-79
2022/01/25 07:27:00;;;;;;;26.80;14.82;;;-2.30;99.90;;;;;;5051697;28;20489;-77
2022/01/25 07:29:27;;;;;;;31.05;15.18;;;-2.20;99.90;;;;;;5050357;28;20079;-77
2022/01/25 07:31:55;;;;;;;29.20;15.20;;;-2.40;99.90;;;;;;5052270;28;20086;-77
2022/01/25 07:34:21;;;;;;;22.83;13.63;;;-2.40;99.90;;;;;;5049370;28;20561;-78
2022/01/25 07:36:46;;;;;;;27.70;13.20;;;-2.30;99.90;;;;;;5032461;28;20100;-76
2022/01/25 07:39:12;;;;;;;23.20;12.98;;;-2.30;99.90;;;;;;5039252;28;20032;-77
2022/01/25 07:41:38;;;;;;;23.05;12.52;;;-2.30;99.90;;;;;;5055660;28;20028;-78
2022/01/25 07:44:05;;;;;;;25.98;14.55;;;-2.20;99.90;;;;;;5044023;28;20139;-77
2022/01/25 07:46:31;;;;;;;23.95;12.75;;;-1.40;99.90;;;;;;5037782;28;20033;-76
2022/01/25 07:48:57;;;;;;;25.05;13.23;;;-2.30;99.90;;;;;;5043138;28;20497;-77
2022/01/25 07:51:26;;;;;;;23.52;12.60;;;-2.20;99.90;;;;;;5055362;28;20028;-77
2022/01/25 07:53:52;;;;;;;24.23;12.75;;;-2.30;99.90;;;;;;5064455;28;20033;-76
2022/01/25 07:56:18;;;;;;;27.50;14.23;;;-2.30;99.90;;;;;;5075832;28;20029;-75
2022/01/25 07:58:44;;;;;;;26.35;12.80;;;-2.30;99.90;;;;;;5065528;28;20033;-78
2022/01/25 08:01:09;;;;;;;23.98;14.00;;;-2.20;99.90;;;;;;5033177;28;20075;-77
2022/01/25 08:03:35;;;;;;;27.27;16.15;;;-2.10;99.90;;;;;;5033644;28;20113;-78
2022/01/25 08:06:01;;;;;;;29.02;16.08;;;-2.00;99.90;;;;;;5051250;28;20198;-77
2022/01/25 08:08:26;;;;;;;24.40;14.38;;;-1.90;99.90;;;;;;5052482;28;20025;-77
2022/01/25 08:10:52;;;;;;;27.35;14.52;;;-1.90;99.90;;;;;;5052290;28;20167;-77
2022/01/25 08:13:17;;;;;;;27.27;16.55;;;-1.90;99.90;;;;;;5052036;28;20049;-78
2022/01/25 08:15:43;;;;;;;30.77;17.48;;;-1.90;99.90;;;;;;5035460;28;20033;-77
2022/01/25 08:18:08;;;;;;;29.38;16.40;;;-1.90;99.90;;;;;;5057662;28;20087;-78
2022/01/25 08:20:34;;;;;;;31.20;17.38;;;-1.90;99.90;;;;;;5052322;28;20167;-78
2022/01/25 08:23:00;;;;;;;33.05;19.65;;;-1.80;99.90;;;;;;5052073;28;20680;-76
2022/01/25 08:25:26;;;;;;;32.95;18.92;;;-1.60;99.90;;;;;;5042566;28;20669;-78
2022/01/25 08:27:52;;;;;;;37.22;19.75;;;-1.40;99.90;;;;;;5031595;28;20033;-78
2022/01/25 08:30:17;;;;;;;35.70;21.85;;;-1.30;99.90;;;;;;5032935;28;20028;-77
2022/01/25 08:32:43;;;;;;;36.13;19.52;;;-1.20;99.90;;;;;;5046891;28;20043;-77
2022/01/25 08:35:09;;;;;;;29.92;18.23;;;-0.80;99.90;;;;;;5040881;28;20021;-78
2022/01/25 08:37:35;;;;;;;31.00;18.00;;;-0.90;99.90;;;;;;5035523;28;20030;-79
2022/01/25 08:40:03;;;;;;;36.03;16.98;;;-0.70;99.90;;;;;;5045284;28;20029;-78
2022/01/25 08:42:28;;;;;;;27.50;15.82;;;-0.60;99.90;;;;;;5050556;28;20033;-77
2022/01/25 08:44:54;;;;;;;29.02;16.00;;;-0.40;99.90;;;;;;5053193;28;20040;-77
2022/01/25 08:47:19;;;;;;;26.02;14.95;;;-0.40;99.90;;;;;;5052361;28;20044;-76
2022/01/25 08:49:45;;;;;;;29.25;15.38;;;-0.40;99.90;;;;;;5052807;28;20033;-76
2022/01/25 08:52:11;;;;;;;27.80;16.85;;;-0.10;99.90;;;;;;5052972;28;20033;-77
2022/01/25 08:54:36;;;;;;;24.48;15.13;;;-0.10;99.90;;;;;;5051905;28;20029;-77
2022/01/25 08:57:04;;;;;;;25.65;15.13;;;0.10;99.90;;;;;;5047952;28;20025;-77
2022/01/25 08:59:29;;;;;;;28.08;15.30;;;0.20;99.90;;;;;;5032538;28;20103;-77
2022/01/25 09:01:55;;;;;;;26.38;15.93;;;0.20;99.90;;;;;;5040122;28;20060;-77
2022/01/25 09:04:21;;;;;;;25.65;14.27;;;0.30;99.90;;;;;;5040955;28;20084;-77
2022/01/25 09:06:47;;;;;;;31.42;17.13;;;0.50;99.90;;;;;;5037874;28;20558;-76
2022/01/25 09:09:13;;;;;;;28.10;15.18;;;0.80;99.90;;;;;;5034104;28;20039;-75
2022/01/25 09:11:40;;;;;;;32.88;16.88;;;0.90;99.90;;;;;;5042372;28;20061;-77
2022/01/25 09:14:07;;;;;;;25.33;15.45;;;0.80;99.90;;;;;;5050394;28;20025;-78
2022/01/25 09:16:34;;;;;;;29.98;16.80;;;0.90;99.90;;;;;;5034931;28;20552;-77
2022/01/25 09:19:00;;;;;;;26.90;16.48;;;0.70;99.90;;;;;;5035042;28;20478;-77
2022/01/25 09:21:25;;;;;;;33.00;17.30;;;1.50;99.90;;;;;;5039651;28;20033;-77
2022/01/25 09:23:51;;;;;;;30.63;16.25;;;0.90;99.90;;;;;;5039605;28;20040;-77
2022/01/25 09:26:17;;;;;;;31.98;18.20;;;0.80;99.90;;;;;;5046617;28;20029;-77
2022/01/25 09:28:44;;;;;;;34.53;18.73;;;0.80;99.90;;;;;;5052575;28;20382;-77
2022/01/25 09:31:09;;;;;;;44.03;23.45;;;1.00;99.90;;;;;;5045030;28;20067;-76
2022/01/25 09:33:35;;;;;;;41.42;21.20;;;1.00;99.90;;;;;;5037233;28;20441;-77
2022/01/25 09:36:01;;;;;;;38.67;22.73;;;0.90;99.90;;;;;;5038889;28;20034;-77
2022/01/25 09:38:27;;;;;;;45.05;22.83;;;1.20;99.90;;;;;;5036079;28;20124;-77
2022/01/25 09:40:53;;;;;;;48.00;25.27;;;1.10;99.90;;;;;;5052434;28;20494;-77
2022/01/25 09:43:21;;;;;;;47.53;23.95;;;1.30;99.90;;;;;;5053777;28;20098;-76
2022/01/25 09:45:47;;;;;;;54.78;27.73;;;1.30;99.90;;;;;;5045494;28;20029;-76
2022/01/25 09:48:14;;;;;;;53.83;24.98;;;1.20;99.90;;;;;;5032475;28;20041;-77
2022/01/25 09:50:40;;;;;;;48.95;24.33;;;1.30;99.90;;;;;;5033111;28;20539;-77
2022/01/25 09:53:06;;;;;;;48.40;24.40;;;1.20;99.90;;;;;;5052798;28;20112;-79
2022/01/25 09:55:35;;;;;;;49.63;25.85;;;1.20;99.90;;;;;;5038756;28;20060;-77
2022/01/25 09:58:02;;;;;;;51.95;27.70;;;1.20;99.90;;;;;;5032978;28;20041;-77
2022/01/25 10:00:30;;;;;;;49.67;25.98;;;1.10;99.90;;;;;;5038194;28;20020;-77
2022/01/25 10:03:20;;;;;;;50.40;26.33;;;1.20;99.90;;;;;;5034908;28;20072;-76
2022/01/25 10:05:48;;;;;;;48.70;25.00;;;2.00;99.90;;;;;;5051658;28;20025;-76
2022/01/25 10:08:26;;;;;;;51.00;26.88;;;1.50;99.90;;;;;;5052996;28;20096;-76
2022/01/25 10:10:58;;;;;;;46.53;26.17;;;1.20;99.90;;;;;;5051951;28;20096;-77
2022/01/25 10:13:26;;;;;;;40.53;23.23;;;1.80;99.90;;;;;;5046016;28;20456;-77
2022/01/25 10:16:02;;;;;;;42.53;23.38;;;2.10;99.90;;;;;;5050987;28;20071;-77
2022/01/25 10:18:37;;;;;;;45.80;23.20;;;2.00;99.90;;;;;;5050449;28;20025;-76
2022/01/25 10:21:03;;;;;;;41.33;24.25;;;2.90;99.90;;;;;;5050443;28;20018;-77
2022/01/25 10:23:31;;;;;;;43.13;23.60;;;1.80;99.90;;;;;;5035111;28;20075;-77
2022/01/25 10:26:00;;;;;;;39.38;22.63;;;2.10;99.90;;;;;;5046522;28;20389;-76
2022/01/25 10:28:30;;;;;;;39.78;22.20;;;2.20;99.90;;;;;;5037749;28;20835;-76
2022/01/25 10:31:05;;;;;;;45.45;23.27;;;2.20;99.90;;;;;;5032187;28;20053;-77
2022/01/25 10:33:37;;;;;;;41.58;23.90;;;2.10;99.90;;;;;;5037401;28;20041;-76
2022/01/25 10:36:18;;;;;;;42.93;24.60;;;2.10;99.90;;;;;;5045403;28;20096;-77
2022/01/25 10:38:46;;;;;;;44.85;25.70;;;2.10;99.90;;;;;;5034066;28;20811;-77
2022/01/25 10:41:15;;;;;;;43.53;26.35;;;2.30;99.90;;;;;;5033683;28;20465;-77
2022/01/25 10:43:43;;;;;;;45.05;25.50;;;1.90;99.90;;;;;;5052512;28;20071;-77
2022/01/25 10:46:10;;;;;;;43.78;24.83;;;1.90;99.90;;;;;;5032550;28;20050;-77
2022/01/25 10:48:37;;;;;;;49.10;26.05;;;1.70;99.90;;;;;;5031954;28;20347;-78
2022/01/25 10:51:11;;;;;;;44.65;25.27;;;2.80;99.90;;;;;;5035736;28;20032;-77
2022/01/25 10:53:37;;;;;;;46.22;25.90;;;1.80;99.90;;;;;;5052898;28;20037;-77
2022/01/25 10:56:04;;;;;;;43.92;24.63;;;2.00;99.90;;;;;;5048899;28;20116;-77
2022/01/25 10:58:30;;;;;;;48.53;27.15;;;1.90;99.90;;;;;;5051653;28;20025;-77
2022/01/25 11:00:58;;;;;;;48.80;26.38;;;2.00;99.90;;;;;;5054797;28;20018;-77
2022/01/25 11:03:31;;;;;;;50.42;27.98;;;2.00;99.90;;;;;;5055366;28;20102;-77
2022/01/25 11:06:07;;;;;;;53.17;29.02;;;2.00;99.90;;;;;;5057194;28;20154;-77
2022/01/25 11:08:36;;;;;;;63.67;33.92;;;4.30;99.90;;;;;;5057415;28;20025;-77
2022/01/25 11:11:03;;;;;;;52.50;26.70;;;2.00;99.90;;;;;;5060358;28;20038;-77
2022/01/25 11:15:58;;;;;;;46.38;25.70;;;2.20;99.90;;;;;;5060761;28;20037;-77
2022/01/25 11:18:25;;;;;;;47.55;26.08;;;2.30;99.90;;;;;;5035720;28;20116;-77
2022/01/25 11:20:52;;;;;;;52.60;25.10;;;2.20;99.90;;;;;;5039883;28;20043;-76
2022/01/25 11:23:19;;;;;;;50.25;25.73;;;2.20;99.90;;;;;;5035928;28;20385;-77
2022/01/25 11:25:46;;;;;;;50.88;26.73;;;2.10;99.90;;;;;;5035616;28;20100;-77
2022/01/25 11:28:13;;;;;;;46.97;25.75;;;2.10;99.90;;;;;;5052216;28;20085;-77
2022/01/25 11:30:40;;;;;;;45.35;25.92;;;2.00;99.90;;;;;;5055326;28;20032;-76
2022/01/25 11:33:09;;;;;;;45.55;26.02;;;2.40;99.90;;;;;;5054691;28;20048;-76
2022/01/25 11:35:37;;;;;;;42.08;24.42;;;2.30;99.90;;;;;;5039712;28;20029;-76
2022/01/25 11:38:05;;;;;;;39.80;23.25;;;2.10;99.90;;;;;;5052906;28;20655;-76
2022/01/25 11:40:35;;;;;;;46.60;25.88;;;2.00;99.90;;;;;;5053613;28;20182;-76
2022/01/25 11:43:12;;;;;;;44.80;26.23;;;1.80;99.90;;;;;;5051293;28;20028;-76
2022/01/25 11:45:50;;;;;;;45.25;24.75;;;1.70;99.90;;;;;;5053250;28;20029;-76
2022/01/25 11:48:33;;;;;;;45.35;25.63;;;1.80;99.90;;;;;;5034339;28;20410;-75
2022/01/25 11:51:01;;;;;;;42.30;23.77;;;1.90;99.90;;;;;;5037235;28;20017;-76
2022/01/25 11:53:29;;;;;;;42.15;24.20;;;1.80;99.90;;;;;;5053888;28;20039;-76
2022/01/25 11:55:55;;;;;;;40.58;22.50;;;1.90;99.90;;;;;;5052193;28;20124;-76
2022/01/25 11:58:29;;;;;;;40.90;23.48;;;1.80;99.90;;;;;;5053848;28;20040;-76
2022/01/25 12:00:57;;;;;;;40.97;22.95;;;1.90;99.90;;;;;;5053601;28;20048;-77
2022/01/25 12:03:28;;;;;;;40.38;22.88;;;1.80;99.90;;;;;;5053973;28;20100;-75
2022/01/25 12:06:06;;;;;;;40.42;23.20;;;1.70;99.90;;;;;;5033278;28;20025;-76
2022/01/25 12:08:52;;;;;;;43.60;23.52;;;1.60;99.90;;;;;;5033294;28;20406;-75
2022/01/25 12:11:40;;;;;;;40.13;23.92;;;2.40;99.90;;;;;;5038506;28;20104;-74
2022/01/25 12:14:18;;;;;;;47.45;25.13;;;1.70;99.90;;;;;;5050314;28;20017;-76
2022/01/25 12:16:51;;;;;;;43.55;24.17;;;2.60;99.90;;;;;;5052074;28;20102;-76
2022/01/25 12:19:33;;;;;;;44.45;24.38;;;1.90;99.90;;;;;;5053119;28;20037;-75
2022/01/25 12:22:12;;;;;;;44.45;24.23;;;2.10;99.90;;;;;;5044386;28;20028;-76
2022/01/25 12:24:47;;;;;;;41.08;23.60;;;1.70;99.90;;;;;;5033992;28;20124;-75
2022/01/25 12:30:08;;;;;;;44.05;22.88;;;2.30;99.90;;;;;;5053445;28;20083;-76
2022/01/25 12:33:00;;;;;;;43.63;23.35;;;2.10;99.90;;;;;;5045992;28;20071;-76
2022/01/25 12:35:48;;;;;;;42.35;23.80;;;2.10;99.90;;;;;;5057874;28;20060;-76
2022/01/25 12:38:19;;;;;;;44.95;23.30;;;2.10;99.90;;;;;;5051578;28;20059;-75
2022/01/25 12:40:47;;;;;;;47.05;24.65;;;2.30;99.90;;;;;;5051057;28;20029;-76
2022/01/25 12:43:25;;;;;;;46.08;23.70;;;2.10;99.90;;;;;;5050584;28;20028;-75
2022/01/25 12:46:05;;;;;;;47.45;26.05;;;1.90;99.90;;;;;;5042517;28;20021;-76
2022/01/25 12:48:35;;;;;;;50.38;26.63;;;1.90;99.90;;;;;;5042870;28;20038;-75
2022/01/25 12:51:05;;;;;;;47.42;25.90;;;2.70;99.90;;;;;;5041129;28;20048;-76
2022/01/25 12:53:38;;;;;;;43.60;23.70;;;2.10;99.90;;;;;;5042953;28;20104;-76
2022/01/25 12:56:07;;;;;;;45.70;25.23;;;1.80;99.90;;;;;;5040969;28;20040;-75
2022/01/25 12:58:36;;;;;;;50.83;26.58;;;1.90;99.90;;;;;;5041796;28;20578;-76
2022/01/25 13:01:05;;;;;;;50.92;26.65;;;1.90;99.90;;;;;;5040876;28;20393;-76
2022/01/25 13:03:44;;;;;;;45.78;25.42;;;1.90;99.90;;;;;;5042821;28;20029;-76
2022/01/25 13:06:12;;;;;;;49.33;27.27;;;2.00;99.90;;;;;;5041670;28;20044;-77
2022/01/25 13:09:45;;;;;;;49.33;26.67;;;2.30;99.90;;;;;;5043602;28;20714;-77
2022/01/25 13:17:18;;;;;;;45.25;26.00;;;2.70;99.90;;;;;;5055958;28;20037;-76
2022/01/25 13:19:49;;;;;;;43.95;24.73;;;2.80;99.90;;;;;;5054228;28;20021;-77
2022/01/25 13:22:17;;;;;;;44.15;24.65;;;3.00;99.90;;;;;;5038135;28;20031;-77
2022/01/25 13:24:56;;;;;;;44.25;26.13;;;4.00;99.90;;;;;;5034446;28;20120;-77
2022/01/25 13:27:24;;;;;;;46.67;25.10;;;3.90;99.90;;;;;;5034841;28;20021;-77
2022/01/25 13:32:41;;;;;;;41.13;24.08;;;3.20;99.90;;;;;;5050713;28;20094;-77
2022/01/25 13:35:18;;;;;;;40.03;22.88;;;3.30;99.90;;;;;;5050469;28;20033;-77
2022/01/25 13:38:02;;;;;;;45.20;23.25;;;3.60;99.90;;;;;;5054999;28;20031;-76
2022/01/25 13:40:35;;;;;;;42.05;25.20;;;3.70;99.90;;;;;;5052055;28;20025;-77
2022/01/25 13:45:54;;;;;;;44.65;23.90;;;3.60;99.90;;;;;;5041567;28;20049;-76
2022/01/25 13:48:21;;;;;;;43.00;24.98;;;3.50;99.90;;;;;;5052605;28;20025;-75
2022/01/25 13:50:53;;;;;;;45.08;24.52;;;3.30;99.90;;;;;;5053124;28;20051;-77
2022/01/25 13:53:19;;;;;;;42.45;23.27;;;3.80;99.90;;;;;;5052551;28;20482;-76
2022/01/25 13:55:49;;;;;;;45.30;24.88;;;3.30;99.90;;;;;;5040866;28;20052;-77
2022/01/25 13:58:41;;;;;;;45.45;24.75;;;4.10;99.90;;;;;;5036621;28;20095;-77
2022/01/25 14:01:10;;;;;;;46.95;26.42;;;3.50;99.90;;;;;;5032409;28;20034;-75
2022/01/25 14:03:39;;;;;;;45.03;25.98;;;3.10;99.90;;;;;;5051008;28;20392;-76
2022/01/25 14:06:26;;;;;;;43.72;23.75;;;3.30;99.90;;;;;;5041703;28;20033;-76
2022/01/25 14:09:21;;;;;;;44.95;25.80;;;3.40;99.90;;;;;;5051728;28;20043;-76
2022/01/25 14:25:29;;;;;;;46.10;26.45;;;3.10;99.90;;;;;;5044375;28;20030;-77
2022/01/25 14:27:57;;;;;;;47.13;25.08;;;3.10;99.90;;;;;;5055275;28;20025;-76
2022/01/25 14:30:23;;;;;;;45.85;26.08;;;3.00;99.90;;;;;;5058547;28;20029;-75
2022/01/25 14:33:10;;;;;;;50.28;27.88;;;3.10;99.90;;;;;;5058663;28;20533;-76
2022/01/25 14:35:52;;;;;;;42.08;24.60;;;3.10;99.90;;;;;;5036736;28;20084;-77
2022/01/25 14:38:28;;;;;;;49.08;26.48;;;3.10;99.90;;;;;;5036217;28;20474;-76
2022/01/25 14:41:14;;;;;;;50.72;26.85;;;3.10;99.90;;;;;;5034408;28;20037;-76
2022/01/25 14:43:53;;;;;;;50.03;26.73;;;2.90;99.90;;;;;;5037193;28;20478;-76
2022/01/25 14:46:22;;;;;;;48.08;26.77;;;3.80;99.90;;;;;;5043824;28;20021;-76